Time;durP1;ratioP1;P1;durP2;ratioP2;P2;SDS_P1;SDS_P2;PMS_P1;PMS_P2;Temp;Humidity;BMP_temperature;BMP_pressure;BME280_temperature;BME280_humidity;BME280_pressure;Samples;Min_cycle;Max_cycle;Signal;HPM_P1;HPM_P2
2021/09/10 00:02:49;;;;;;;12.57;4.83;;;;;;;;;;10460337;28;20034;-80
2021/09/10 00:07:50;;;;;;;13.13;4.97;;;;;;;;;;10452766;28;20032;-77
2021/09/10 00:12:50;;;;;;;16.30;5.17;;;;;;;;;;10451845;28;20124;-80
2021/09/10 00:17:50;;;;;;;7.97;4.40;;;;;;;;;;10459380;28;20043;-80
2021/09/10 00:22:51;;;;;;;7.63;4.80;;;;;;;;;;10446604;28;20111;-79
2021/09/10 00:27:51;;;;;;;20.80;4.47;;;;;;;;;;10459902;28;20025;-80
2021/09/10 00:32:51;;;;;;;8.60;4.27;;;;;;;;;;10461090;28;20040;-79
2021/09/10 00:37:52;;;;;;;8.83;4.33;;;;;;;;;;10435235;28;20461;-79
2021/09/10 00:42:52;;;;;;;9.30;4.30;;;;;;;;;;10461158;28;20060;-80
2021/09/10 00:47:53;;;;;;;11.90;4.43;;;;;;;;;;10456917;28;20051;-78
2021/09/10 00:52:53;;;;;;;10.05;4.72;;;;;;;;;;10419052;28;20076;-79
2021/09/10 00:57:54;;;;;;;11.50;4.63;;;;;;;;;;10444243;28;20039;-78
2021/09/10 01:02:55;;;;;;;10.87;4.43;;;;;;;;;;10457684;28;20100;-79
2021/09/10 01:07:57;;;;;;;13.70;4.28;;;;;;;;;;10441380;28;20036;-79
2021/09/10 01:12:58;;;;;;;7.35;4.28;;;;;;;;;;10459017;28;20447;-80
2021/09/10 01:17:58;;;;;;;7.78;4.53;;;;;;;;;;10455001;28;20071;-79
2021/09/10 01:22:59;;;;;;;11.47;4.10;;;;;;;;;;10458984;28;20060;-78
2021/09/10 01:28:00;;;;;;;10.65;3.65;;;;;;;;;;10459157;28;20545;-79
2021/09/10 01:33:08;;;;;;;8.45;4.03;;;;;;;;;;10447534;28;20033;-81
2021/09/10 01:38:09;;;;;;;7.60;3.83;;;;;;;;;;10440138;28;20036;-83
2021/09/10 01:43:09;;;;;;;6.47;4.00;;;;;;;;;;10444889;28;20049;-79
2021/09/10 01:48:10;;;;;;;5.57;4.15;;;;;;;;;;10456597;28;20041;-79
2021/09/10 01:53:10;;;;;;;12.75;4.45;;;;;;;;;;10458395;28;20064;-78
2021/09/10 01:58:11;;;;;;;6.13;4.00;;;;;;;;;;10444615;28;20120;-79
2021/09/10 02:03:12;;;;;;;4.25;3.30;;;;;;;;;;10454858;28;20461;-78
2021/09/10 02:08:12;;;;;;;8.57;3.37;;;;;;;;;;10447321;28;20033;-80
2021/09/10 02:13:12;;;;;;;4.70;3.50;;;;;;;;;;10418146;28;20548;-80
2021/09/10 02:18:13;;;;;;;5.68;3.47;;;;;;;;;;10418314;28;20116;-79
2021/09/10 02:23:13;;;;;;;5.67;4.07;;;;;;;;;;10439503;28;20064;-79
2021/09/10 02:28:14;;;;;;;4.03;3.53;;;;;;;;;;10424370;28;20103;-79
2021/09/10 02:33:14;;;;;;;6.40;3.90;;;;;;;;;;10421005;28;20459;-80
2021/09/10 02:38:14;;;;;;;7.35;3.65;;;;;;;;;;10432972;28;20064;-80
2021/09/10 02:43:15;;;;;;;8.50;3.67;;;;;;;;;;10415854;28;20088;-78
2021/09/10 02:48:15;;;;;;;7.22;3.80;;;;;;;;;;10415704;28;20388;-78
2021/09/10 02:53:16;;;;;;;8.20;3.40;;;;;;;;;;10420539;28;20026;-79
2021/09/10 02:58:16;;;;;;;8.17;3.30;;;;;;;;;;10414688;28;20056;-78
2021/09/10 03:03:17;;;;;;;5.47;3.57;;;;;;;;;;10435095;28;20389;-78
2021/09/10 03:08:17;;;;;;;11.85;3.67;;;;;;;;;;10439013;28;20435;-78
2021/09/10 03:13:18;;;;;;;5.90;3.70;;;;;;;;;;10449608;28;20049;-80
2021/09/10 03:18:18;;;;;;;16.90;3.30;;;;;;;;;;10430890;28;20040;-79
2021/09/10 03:23:18;;;;;;;7.20;3.17;;;;;;;;;;10449864;28;20087;-79
2021/09/10 03:28:19;;;;;;;4.90;3.20;;;;;;;;;;10423780;28;20493;-77
2021/09/10 03:33:19;;;;;;;11.93;3.53;;;;;;;;;;10448275;28;20040;-78
2021/09/10 03:38:20;;;;;;;5.45;3.00;;;;;;;;;;10461172;28;20439;-78
2021/09/10 03:43:20;;;;;;;5.77;3.40;;;;;;;;;;10429014;28;20464;-81
2021/09/10 03:48:20;;;;;;;5.90;2.93;;;;;;;;;;10451467;28;20119;-81
2021/09/10 03:53:21;;;;;;;6.15;3.38;;;;;;;;;;10448693;28;20037;-82
2021/09/10 03:58:21;;;;;;;3.27;2.83;;;;;;;;;;10429597;28;20492;-79
2021/09/10 04:03:22;;;;;;;8.97;3.20;;;;;;;;;;10442562;28;20081;-80
2021/09/10 04:08:22;;;;;;;4.05;3.20;;;;;;;;;;10453732;28;20112;-80
2021/09/10 04:13:22;;;;;;;4.80;3.17;;;;;;;;;;10449532;28;20039;-80
2021/09/10 04:18:23;;;;;;;3.45;2.90;;;;;;;;;;10435586;28;20064;-80
2021/09/10 04:23:23;;;;;;;4.43;2.80;;;;;;;;;;10438680;28;20037;-78
2021/09/10 04:28:24;;;;;;;4.70;3.03;;;;;;;;;;10433484;28;20458;-79
2021/09/10 04:33:24;;;;;;;11.05;3.10;;;;;;;;;;10436347;28;20026;-82
2021/09/10 04:38:24;;;;;;;3.37;2.77;;;;;;;;;;10414051;28;20042;-82
2021/09/10 04:43:25;;;;;;;8.97;2.77;;;;;;;;;;10419476;28;20049;-82
2021/09/10 04:48:25;;;;;;;5.67;2.87;;;;;;;;;;10434758;28;20029;-84
2021/09/10 04:53:26;;;;;;;5.23;2.80;;;;;;;;;;10415754;28;20055;-81
2021/09/10 04:58:26;;;;;;;15.57;2.90;;;;;;;;;;10438554;28;20538;-83
2021/09/10 05:03:26;;;;;;;6.20;2.87;;;;;;;;;;10434935;28;20380;-83
2021/09/10 05:08:27;;;;;;;4.07;2.90;;;;;;;;;;10450008;28;20030;-81
2021/09/10 05:13:27;;;;;;;5.00;3.07;;;;;;;;;;10456707;28;20017;-82
2021/09/10 05:18:27;;;;;;;4.70;2.60;;;;;;;;;;10434239;28;20032;-81
2021/09/10 05:23:28;;;;;;;3.70;2.90;;;;;;;;;;10419961;28;20029;-82
2021/09/10 05:28:28;;;;;;;4.27;2.93;;;;;;;;;;10447644;28;20057;-81
2021/09/10 05:33:28;;;;;;;3.10;2.30;;;;;;;;;;10420174;28;20506;-84
2021/09/10 05:38:29;;;;;;;4.83;2.50;;;;;;;;;;10433738;28;20078;-80
2021/09/10 05:43:29;;;;;;;8.33;3.00;;;;;;;;;;10458269;28;20132;-83
2021/09/10 05:48:30;;;;;;;5.53;3.10;;;;;;;;;;10450044;28;20029;-78
2021/09/10 05:53:30;;;;;;;2.87;2.53;;;;;;;;;;10451311;28;20466;-81
2021/09/10 05:58:31;;;;;;;6.40;2.70;;;;;;;;;;10444293;28;20550;-82
2021/09/10 06:03:32;;;;;;;3.17;2.50;;;;;;;;;;10459408;28;20388;-79
2021/09/10 06:08:32;;;;;;;6.18;2.60;;;;;;;;;;10436639;28;20107;-82
2021/09/10 06:13:33;;;;;;;3.83;2.70;;;;;;;;;;10462018;28;20025;-79
2021/09/10 06:18:33;;;;;;;8.35;2.60;;;;;;;;;;10422916;28;20030;-79
2021/09/10 06:23:33;;;;;;;4.88;2.80;;;;;;;;;;10430911;28;20025;-83
2021/09/10 06:28:34;;;;;;;5.95;2.70;;;;;;;;;;10443781;28;20032;-82
2021/09/10 06:33:34;;;;;;;11.80;2.80;;;;;;;;;;10429669;28;20029;-82
2021/09/10 06:38:35;;;;;;;9.00;2.30;;;;;;;;;;10429804;28;20964;-83
2021/09/10 06:43:35;;;;;;;5.53;2.30;;;;;;;;;;10445018;28;20055;-81
2021/09/10 06:48:35;;;;;;;6.65;2.90;;;;;;;;;;10432158;28;20049;-82
2021/09/10 06:53:36;;;;;;;3.93;2.73;;;;;;;;;;10432384;28;20009;-82
2021/09/10 06:58:36;;;;;;;5.13;2.33;;;;;;;;;;10417622;28;20423;-81
2021/09/10 07:03:37;;;;;;;10.40;2.75;;;;;;;;;;10413565;28;20034;-81
2021/09/10 07:08:37;;;;;;;3.85;2.35;;;;;;;;;;10425315;28;20032;-81
2021/09/10 07:13:38;;;;;;;8.40;2.70;;;;;;;;;;10453913;28;20032;-80
2021/09/10 07:18:38;;;;;;;8.98;2.58;;;;;;;;;;10429047;28;20029;-82
2021/09/10 07:23:38;;;;;;;4.65;2.35;;;;;;;;;;10446038;28;20071;-80
2021/09/10 07:28:39;;;;;;;5.57;2.37;;;;;;;;;;10429319;28;20025;-84
2021/09/10 07:33:42;;;;;;;7.00;2.65;;;;;;;;;;10416815;28;20953;-85
2021/09/10 07:38:42;;;;;;;8.40;2.55;;;;;;;;;;10444452;28;20010;-86
2021/09/10 07:43:43;;;;;;;11.13;2.80;;;;;;;;;;10390050;23;20449;-82
2021/09/10 07:48:43;;;;;;;5.70;3.03;;;;;;;;;;10312122;28;20444;-79
2021/09/10 07:53:44;;;;;;;5.80;3.23;;;;;;;;;;10303543;28;20813;-83
2021/09/10 07:58:44;;;;;;;5.43;3.10;;;;;;;;;;10315240;28;20081;-82
2021/09/10 08:03:44;;;;;;;14.83;3.37;;;;;;;;;;10305386;28;20058;-82
2021/09/10 08:08:45;;;;;;;5.37;3.40;;;;;;;;;;10315408;28;20435;-82
2021/09/10 08:13:45;;;;;;;7.43;3.30;;;;;;;;;;10319007;28;20037;-82
2021/09/10 08:18:46;;;;;;;7.73;3.57;;;;;;;;;;10303306;28;20506;-89
2021/09/10 08:23:47;;;;;;;7.00;3.40;;;;;;;;;;10310874;28;20414;-94
2021/09/10 08:28:48;;;;;;;5.32;2.97;;;;;;;;;;10312843;28;20125;-92
2021/09/10 08:33:48;;;;;;;6.07;2.95;;;;;;;;;;10307539;28;20138;-84
2021/09/10 08:38:48;;;;;;;8.00;3.50;;;;;;;;;;10316034;28;20043;-84
2021/09/10 08:43:50;;;;;;;11.30;3.40;;;;;;;;;;10339227;28;20472;-90
2021/09/10 08:48:50;;;;;;;4.80;3.20;;;;;;;;;;10326972;28;20484;-82
2021/09/10 08:53:51;;;;;;;5.88;3.17;;;;;;;;;;10324057;28;20113;-81
2021/09/10 08:59:05;;;;;;;8.23;3.47;;;;;;;;;;10336687;28;20433;-82
2021/09/10 09:04:06;;;;;;;3.20;2.70;;;;;;;;;;10334964;28;20034;-81
2021/09/10 09:09:06;;;;;;;5.35;3.03;;;;;;;;;;10310823;28;20074;-80
2021/09/10 09:14:06;;;;;;;4.93;3.20;;;;;;;;;;10328002;28;20026;-77
2021/09/10 09:19:07;;;;;;;8.67;3.37;;;;;;;;;;10325389;28;20035;-79
2021/09/10 09:24:14;;;;;;;3.72;3.10;;;;;;;;;;10328396;28;20062;-79
2021/09/10 09:29:16;;;;;;;4.82;3.38;;;;;;;;;;10317030;28;20090;-78
2021/09/10 09:34:16;;;;;;;5.50;3.17;;;;;;;;;;10325283;28;20062;-79
2021/09/10 09:39:17;;;;;;;11.07;3.55;;;;;;;;;;10343280;28;20383;-79
2021/09/10 09:44:18;;;;;;;13.07;3.50;;;;;;;;;;10334603;28;20356;-80
2021/09/10 09:49:21;;;;;;;7.78;3.45;;;;;;;;;;10313838;28;20449;-80
2021/09/10 09:54:22;;;;;;;4.78;3.22;;;;;;;;;;10311615;28;20022;-79
2021/09/10 09:59:23;;;;;;;4.40;3.28;;;;;;;;;;10297316;28;20034;-79
2021/09/10 10:04:24;;;;;;;5.77;3.00;;;;;;;;;;10312013;28;20045;-79
2021/09/10 10:09:24;;;;;;;10.65;3.47;;;;;;;;;;10337962;28;20089;-80
2021/09/10 10:14:36;;;;;;;5.10;3.33;;;;;;;;;;10318426;28;20022;-79
2021/09/10 10:19:38;;;;;;;4.65;3.30;;;;;;;;;;10308918;28;20482;-80
2021/09/10 10:24:47;;;;;;;9.33;3.20;;;;;;;;;;10311899;28;20037;-81
2021/09/10 10:29:47;;;;;;;8.65;3.20;;;;;;;;;;10312174;28;20390;-79
2021/09/10 10:35:12;;;;;;;3.93;3.20;;;;;;;;;;10331626;28;20022;-78
2021/09/10 10:40:28;;;;;;;11.07;3.75;;;;;;;;;;10322289;28;20382;-79
2021/09/10 10:45:46;;;;;;;5.03;3.05;;;;;;;;;;10311104;28;20051;-79
2021/09/10 10:50:47;;;;;;;5.07;3.38;;;;;;;;;;10307153;28;20391;-78
2021/09/10 10:55:47;;;;;;;9.23;3.43;;;;;;;;;;10308835;28;20031;-79
2021/09/10 11:00:50;;;;;;;5.87;3.10;;;;;;;;;;10309038;28;20118;-79
2021/09/10 11:05:52;;;;;;;5.75;2.95;;;;;;;;;;10309248;28;20459;-79
2021/09/10 11:10:52;;;;;;;8.98;3.78;;;;;;;;;;10317556;28;20470;-79
2021/09/10 11:15:53;;;;;;;6.23;3.73;;;;;;;;;;10314461;28;20127;-75
2021/09/10 11:20:53;;;;;;;8.83;3.53;;;;;;;;;;10307228;28;21073;-78
2021/09/10 11:25:56;;;;;;;7.47;4.00;;;;;;;;;;10335146;28;20453;-78
2021/09/10 11:30:56;;;;;;;4.75;3.47;;;;;;;;;;10343801;28;20086;-79
2021/09/10 11:35:58;;;;;;;9.77;3.33;;;;;;;;;;10317225;28;20077;-78
2021/09/10 11:41:00;;;;;;;6.68;3.28;;;;;;;;;;10330223;28;20104;-79
2021/09/10 11:46:10;;;;;;;6.22;3.08;;;;;;;;;;10345616;28;20134;-81
2021/09/10 11:51:13;;;;;;;5.75;3.30;;;;;;;;;;10325558;28;20034;-81
2021/09/10 11:56:17;;;;;;;4.25;2.90;;;;;;;;;;10310532;28;20348;-81
2021/09/10 12:01:31;;;;;;;4.47;3.30;;;;;;;;;;10323836;28;20080;-80
2021/09/10 12:06:34;;;;;;;7.40;3.10;;;;;;;;;;10313213;28;20503;-80
2021/09/10 12:11:54;;;;;;;10.80;3.20;;;;;;;;;;10320960;28;20053;-81
2021/09/10 12:17:11;;;;;;;8.20;3.40;;;;;;;;;;10327828;28;20042;-79
2021/09/10 12:22:46;;;;;;;6.57;2.97;;;;;;;;;;10320051;28;20050;-80
2021/09/10 12:27:48;;;;;;;4.20;2.85;;;;;;;;;;10331072;28;20096;-80
2021/09/10 12:32:48;;;;;;;5.25;3.28;;;;;;;;;;10337888;28;20363;-79
2021/09/10 12:37:54;;;;;;;4.82;3.05;;;;;;;;;;10339496;28;20027;-78
2021/09/10 12:42:55;;;;;;;7.85;3.08;;;;;;;;;;10330565;28;20522;-78
2021/09/10 12:47:56;;;;;;;6.85;3.45;;;;;;;;;;10328268;28;20042;-79
2021/09/10 12:52:57;;;;;;;8.73;3.40;;;;;;;;;;10340528;28;20034;-79
2021/09/10 12:57:57;;;;;;;8.00;3.05;;;;;;;;;;10334641;28;20516;-79
2021/09/10 13:02:57;;;;;;;5.37;3.00;;;;;;;;;;10334655;28;20034;-78
2021/09/10 13:07:58;;;;;;;9.27;3.80;;;;;;;;;;10342852;28;20602;-79
2021/09/10 13:12:58;;;;;;;12.17;3.60;;;;;;;;;;10327567;28;20041;-79
2021/09/10 13:17:59;;;;;;;10.83;3.63;;;;;;;;;;10312978;28;20058;-79
2021/09/10 13:22:59;;;;;;;17.73;3.83;;;;;;;;;;10312266;28;20118;-82
2021/09/10 13:27:59;;;;;;;13.70;3.10;;;;;;;;;;10311640;28;20035;-80
2021/09/10 13:33:00;;;;;;;14.93;3.63;;;;;;;;;;10313738;28;20118;-79
2021/09/10 13:38:01;;;;;;;9.02;3.38;;;;;;;;;;10310685;28;20511;-80
2021/09/10 13:43:01;;;;;;;15.83;4.40;;;;;;;;;;10324382;28;20047;-82
2021/09/10 13:48:02;;;;;;;10.70;4.07;;;;;;;;;;10310185;28;20958;-80
2021/09/10 13:53:02;;;;;;;17.33;4.43;;;;;;;;;;10312043;28;20499;-79
2021/09/10 13:58:03;;;;;;;16.50;4.32;;;;;;;;;;10324681;28;20094;-79
2021/09/10 14:03:03;;;;;;;17.30;4.73;;;;;;;;;;10311597;28;20069;-80
2021/09/10 14:08:04;;;;;;;18.33;4.07;;;;;;;;;;10331588;28;20041;-75
2021/09/10 14:13:04;;;;;;;18.35;3.80;;;;;;;;;;10343388;28;20050;-80
2021/09/10 14:18:04;;;;;;;10.63;4.43;;;;;;;;;;10332027;28;20041;-82
2021/09/10 14:23:05;;;;;;;12.63;3.90;;;;;;;;;;10334212;28;20030;-79
2021/09/10 14:28:05;;;;;;;15.00;3.75;;;;;;;;;;10343942;28;20077;-77
2021/09/10 14:33:06;;;;;;;7.47;3.60;;;;;;;;;;10342314;28;20034;-78
2021/09/10 14:38:06;;;;;;;15.70;4.23;;;;;;;;;;10345059;28;20042;-79
2021/09/10 14:43:07;;;;;;;20.17;4.00;;;;;;;;;;10343887;28;20468;-78
2021/09/10 14:48:07;;;;;;;19.43;3.97;;;;;;;;;;10344800;28;20053;-78
2021/09/10 14:53:07;;;;;;;24.50;4.03;;;;;;;;;;10343917;28;20456;-87
2021/09/10 14:58:08;;;;;;;29.70;4.73;;;;;;;;;;10344045;28;20038;-88
2021/09/10 15:03:10;;;;;;;23.17;4.53;;;;;;;;;;10361735;28;20444;-89
2021/09/10 15:08:10;;;;;;;32.83;4.65;;;;;;;;;;10358349;28;20054;-87
2021/09/10 15:13:11;;;;;;;20.60;4.15;;;;;;;;;;10349289;28;20026;-81
2021/09/10 15:18:11;;;;;;;19.95;4.85;;;;;;;;;;10342839;28;20117;-83
2021/09/10 15:23:12;;;;;;;16.90;4.20;;;;;;;;;;10347479;28;20060;-83
2021/09/10 15:28:12;;;;;;;24.50;4.28;;;;;;;;;;10360703;28;20077;-81
2021/09/10 15:33:13;;;;;;;21.25;4.30;;;;;;;;;;10346503;28;20026;-81
2021/09/10 15:38:13;;;;;;;19.87;4.20;;;;;;;;;;10358915;28;20038;-83
2021/09/10 15:43:14;;;;;;;17.48;4.22;;;;;;;;;;10358788;28;20081;-81
2021/09/10 15:48:15;;;;;;;17.77;4.63;;;;;;;;;;10348118;28;20151;-82
2021/09/10 15:53:15;;;;;;;18.70;4.68;;;;;;;;;;10343182;28;20179;-82
2021/09/10 15:58:15;;;;;;;12.13;4.33;;;;;;;;;;10342864;28;20470;-83
2021/09/10 16:03:16;;;;;;;9.50;4.27;;;;;;;;;;10350219;28;20472;-83
2021/09/10 16:08:16;;;;;;;13.27;4.70;;;;;;;;;;10348105;28;20456;-82
2021/09/10 16:13:17;;;;;;;13.47;4.60;;;;;;;;;;10338873;28;20033;-82
2021/09/10 16:18:18;;;;;;;14.30;4.60;;;;;;;;;;10339083;28;20026;-81
2021/09/10 16:23:18;;;;;;;9.70;4.10;;;;;;;;;;10339434;28;20463;-82
2021/09/10 16:28:21;;;;;;;14.07;3.90;;;;;;;;;;10350289;28;20458;-82
2021/09/10 16:33:22;;;;;;;13.65;4.40;;;;;;;;;;10312878;28;20848;-83
2021/09/10 16:38:23;;;;;;;10.43;4.25;;;;;;;;;;10325187;28;20035;-82
2021/09/10 16:43:23;;;;;;;8.90;4.45;;;;;;;;;;10319327;28;20054;-82
2021/09/10 16:48:24;;;;;;;14.77;3.90;;;;;;;;;;10350812;28;20034;-81
2021/09/10 16:53:26;;;;;;;10.85;3.92;;;;;;;;;;10350167;28;20390;-81
2021/09/10 16:58:27;;;;;;;9.07;3.83;;;;;;;;;;10332531;28;20034;-88
2021/09/10 17:03:28;;;;;;;11.70;3.67;;;;;;;;;;10345409;28;20450;-86
2021/09/10 17:08:29;;;;;;;13.88;4.07;;;;;;;;;;10350025;28;20447;-86
2021/09/10 17:13:29;;;;;;;11.45;4.28;;;;;;;;;;10345793;28;20030;-84
2021/09/10 17:18:30;;;;;;;12.57;3.87;;;;;;;;;;10321467;28;20046;-85
2021/09/10 17:23:30;;;;;;;14.75;4.85;;;;;;;;;;10350269;28;20499;-86
2021/09/10 17:28:30;;;;;;;11.87;4.07;;;;;;;;;;10349844;28;20387;-83
2021/09/10 17:33:31;;;;;;;8.57;4.07;;;;;;;;;;10349316;28;20068;-86
2021/09/10 17:38:31;;;;;;;13.23;4.60;;;;;;;;;;10324046;28;20493;-83
2021/09/10 17:43:32;;;;;;;10.05;4.25;;;;;;;;;;10347717;28;20089;-85
2021/09/10 17:48:32;;;;;;;11.15;3.85;;;;;;;;;;10348648;28;20030;-86
2021/09/10 17:53:33;;;;;;;7.43;4.70;;;;;;;;;;10335499;28;20026;-84
2021/09/10 17:58:33;;;;;;;7.13;3.58;;;;;;;;;;10334934;28;20061;-79
2021/09/10 18:03:34;;;;;;;12.07;3.93;;;;;;;;;;10347826;28;20039;-80
2021/09/10 18:08:34;;;;;;;10.23;4.00;;;;;;;;;;10333541;28;20022;-79
2021/09/10 18:13:36;;;;;;;9.50;3.97;;;;;;;;;;10339606;28;20449;-80
2021/09/10 18:18:37;;;;;;;6.80;3.80;;;;;;;;;;10334349;28;20030;-80
2021/09/10 18:23:38;;;;;;;7.90;3.88;;;;;;;;;;10346441;28;20038;-79
2021/09/10 18:28:38;;;;;;;10.30;3.78;;;;;;;;;;10322241;28;20054;-80
2021/09/10 18:33:38;;;;;;;7.77;3.73;;;;;;;;;;10347414;28;20090;-85
2021/09/10 18:38:39;;;;;;;5.78;4.00;;;;;;;;;;10334245;28;20261;-80
2021/09/10 18:43:42;;;;;;;7.63;4.47;;;;;;;;;;10339839;28;20170;-79
2021/09/10 18:48:42;;;;;;;7.88;4.10;;;;;;;;;;10333934;28;20444;-80
2021/09/10 18:53:43;;;;;;;11.77;3.85;;;;;;;;;;10327606;28;20065;-80
2021/09/10 18:58:43;;;;;;;9.83;3.97;;;;;;;;;;10329267;28;20045;-80
2021/09/10 19:03:43;;;;;;;10.70;4.03;;;;;;;;;;10330874;28;20045;-80
2021/09/10 19:08:44;;;;;;;9.20;4.03;;;;;;;;;;10335110;28;20456;-80
2021/09/10 19:13:45;;;;;;;6.40;3.90;;;;;;;;;;10338956;28;20030;-79
2021/09/10 19:18:45;;;;;;;4.82;3.38;;;;;;;;;;10340046;28;20030;-80
2021/09/10 19:23:46;;;;;;;5.20;3.53;;;;;;;;;;10331673;28;20042;-79
2021/09/10 19:28:46;;;;;;;7.35;3.60;;;;;;;;;;10327335;28;20069;-79
2021/09/10 19:33:46;;;;;;;5.93;3.70;;;;;;;;;;10319184;28;20038;-79
2021/09/10 19:38:47;;;;;;;5.03;3.30;;;;;;;;;;10332916;28;20382;-79
2021/09/10 19:43:47;;;;;;;7.33;3.90;;;;;;;;;;10428873;23;20646;-92
2021/09/10 19:48:48;;;;;;;4.30;3.35;;;;;;;;;;10419183;28;20032;-92
2021/09/10 19:53:49;;;;;;;6.95;3.85;;;;;;;;;;10415694;28;20037;-90
2021/09/10 19:58:49;;;;;;;5.43;3.42;;;;;;;;;;10447154;28;20029;-90
2021/09/10 20:03:50;;;;;;;7.63;3.40;;;;;;;;;;10393729;28;20033;-91
2021/09/10 20:08:50;;;;;;;5.83;4.00;;;;;;;;;;10461835;28;20442;-87
2021/09/10 20:13:51;;;;;;;5.57;3.53;;;;;;;;;;10442175;28;20053;-86
2021/09/10 20:18:51;;;;;;;9.30;3.80;;;;;;;;;;10427189;28;20025;-87
2021/09/10 20:23:52;;;;;;;6.10;3.83;;;;;;;;;;10420298;28;20083;-88
2021/09/10 20:28:52;;;;;;;6.38;4.32;;;;;;;;;;10417203;28;20056;-93
2021/09/10 20:33:53;;;;;;;12.27;3.88;;;;;;;;;;10426271;28;20461;-90
2021/09/10 20:38:53;;;;;;;12.03;3.80;;;;;;;;;;10460826;28;20045;-89
2021/09/10 20:43:54;;;;;;;6.27;3.97;;;;;;;;;;10441649;28;20470;-89
2021/09/10 20:48:55;;;;;;;13.38;4.07;;;;;;;;;;10461479;28;20512;-89
2021/09/10 20:53:55;;;;;;;11.07;4.05;;;;;;;;;;10442091;28;20056;-89
2021/09/10 20:58:55;;;;;;;4.90;3.43;;;;;;;;;;10458972;28;20033;-92
2021/09/10 21:03:58;;;;;;;10.23;3.83;;;;;;;;;;10457021;28;20798;-89
2021/09/10 21:08:58;;;;;;;4.38;3.30;;;;;;;;;;10469403;28;20031;-89
2021/09/10 21:13:58;;;;;;;9.40;3.63;;;;;;;;;;10424447;28;20057;-90
2021/09/10 21:18:59;;;;;;;7.60;3.77;;;;;;;;;;10402568;28;20439;-89
2021/09/10 21:23:59;;;;;;;5.97;3.33;;;;;;;;;;10418259;28;20047;-88
2021/09/10 21:28:59;;;;;;;6.80;4.03;;;;;;;;;;10410040;28;20025;-93
2021/09/10 21:34:00;;;;;;;10.33;4.30;;;;;;;;;;10389401;28;20121;-82
2021/09/10 21:39:00;;;;;;;7.15;4.03;;;;;;;;;;10413499;28;20060;-83
2021/09/10 21:44:01;;;;;;;5.43;3.60;;;;;;;;;;10416410;28;20049;-83
2021/09/10 21:49:01;;;;;;;6.68;3.80;;;;;;;;;;10416627;28;20116;-86
2021/09/10 21:54:02;;;;;;;6.25;3.70;;;;;;;;;;10416285;28;20032;-85
2021/09/10 21:59:02;;;;;;;6.63;3.93;;;;;;;;;;10416233;28;20034;-85
2021/09/10 22:04:06;;;;;;;10.10;7.70;;;;;;;;;;10416628;28;20036;-90
2021/09/10 22:09:06;;;;;;;14.20;8.93;;;;;;;;;;10383324;28;20037;-90
2021/09/10 22:14:26;;;;;;;18.48;8.60;;;;;;;;;;10399576;28;20112;-90
2021/09/10 22:19:27;;;;;;;17.02;8.05;;;;;;;;;;10455176;28;20029;-90
2021/09/10 22:24:35;;;;;;;17.30;9.52;;;;;;;;;;10424267;28;20396;-91
2021/09/10 22:29:36;;;;;;;19.00;9.75;;;;;;;;;;10387069;28;20029;-91
2021/09/10 22:40:47;;;;;;;16.90;10.35;;;;;;;;;;10415411;28;20366;-90
2021/09/10 22:45:48;;;;;;;22.70;11.00;;;;;;;;;;10387572;28;20046;-90
2021/09/10 22:50:48;;;;;;;20.13;9.23;;;;;;;;;;10411017;28;20045;-92
2021/09/10 22:55:49;;;;;;;18.83;8.23;;;;;;;;;;10410887;28;21008;-92
2021/09/10 23:00:49;;;;;;;15.60;6.93;;;;;;;;;;10398374;28;20030;-92
2021/09/10 23:05:52;;;;;;;11.43;6.72;;;;;;;;;;10394928;28;20469;-90
2021/09/10 23:10:53;;;;;;;14.73;7.50;;;;;;;;;;10413045;28;20053;-89
2021/09/10 23:15:53;;;;;;;25.90;7.55;;;;;;;;;;10419971;28;20115;-90
2021/09/10 23:20:54;;;;;;;20.17;6.70;;;;;;;;;;10432564;28;20389;-91
2021/09/10 23:25:54;;;;;;;12.80;6.17;;;;;;;;;;10425689;28;20451;-90
2021/09/10 23:30:54;;;;;;;19.87;6.20;;;;;;;;;;10419371;28;20112;-89
2021/09/10 23:35:55;;;;;;;16.20;6.30;;;;;;;;;;10435711;28;20466;-87
2021/09/10 23:40:55;;;;;;;11.82;6.00;;;;;;;;;;10424482;28;20053;-85
2021/09/10 23:45:56;;;;;;;8.93;6.50;;;;;;;;;;10449481;28;20033;-88
2021/09/10 23:50:56;;;;;;;13.00;5.50;;;;;;;;;;10428919;28;20443;-88
2021/09/10 23:55:56;;;;;;;14.17;6.30;;;;;;;;;;10434956;28;20021;-89
